Tropical Cyclones
[Index]
Main Index Home Page Stock Weather Photos Extreme Storms Discussion Storm News and Storm Chasing Reports Tropical Cyclones / Hurricanes / Typhoons Weather Data and Links Wild Fires / Bushfires Weather Observation Techniques Weather Picture Catalogue Tornado Pictures and Reports Stock Video Footage and DVDs for sale
Season 1991-1992 Tropical Cyclone 199204 Track Map
Season 1991-1992 Summaries: [BoM-AU] [JTWC-AU] [JTWC-SIO] [JTWC-SPAC] [JTWC-SH]
<<- Previous TC | JTWC 1991-1992 Season | Next TC ->>

click for intensity scale information  Lat/long Grid: Show Hide

 Date Labels: Show Hide

Joint Typhoon Warning Centre Cyclone Data

Name: 199204

20 Nov 1991 06:00 UTC to 26 Nov 1991 12:00 UTC

    date/time    lat    long     hPa   cat  kts
1991-11-20 06    8.1    73.7                  20          
1991-11-20 12    8.4    72.9                  20          
1991-11-20 18    8.6    72.3                  20          
1991-11-21 00    8.9    71.8                  20          
1991-11-21 06    9.3    71.2                  20          
1991-11-21 12    9.7    70.9                  20          
1991-11-21 18   10.1    70.7                  25          
1991-11-22 00   10.5    70.6                  25          
1991-11-22 06   10.9    70.6                  25          
1991-11-22 12   11.3    70.7                  30          
1991-11-22 18   11.8    70.7                  35          
1991-11-23 00   12.4    70.8                  35          
1991-11-23 06   13.0    71.0                  35          
1991-11-23 12   13.6    71.4            1     40          
1991-11-23 18   14.2    71.9            1     45          
1991-11-24 00   14.9    72.3            1     45          
1991-11-24 06   15.6    72.2            1     45          
1991-11-24 12   16.2    71.7            1     45          
1991-11-24 18   16.4    71.0            1     40          
1991-11-25 00   16.4    70.3            1     40          
1991-11-25 06   16.3    69.6            1     40          
1991-11-25 12   16.2    68.9                  35          
1991-11-25 18   15.9    68.2                  30          
1991-11-26 00   15.8    67.6                  30          
1991-11-26 06   15.3    67.0                  25          
1991-11-26 12   15.0    66.5                  25          
Winds are 1-min average.

Tropical cyclone tracks developed by Michael Bath using data from the Joint Typhoon Warning Centre Best Tracks and Google Maps.


[Australian Severe Weather index] [Copyright Notice] [Email Contacts] [Search This Site] [Privacy Policy]
Document: tropical_cyclone_199204.htm Updated: 18 September 2016